Time;durP1;ratioP1;P1;durP2;ratioP2;P2;SDS_P1;SDS_P2;PMS_P1;PMS_P2;Temp;Humidity;BMP_temperature;BMP_pressure;BME280_temperature;BME280_humidity;BME280_pressure;Samples;Min_cycle;Max_cycle;Signal;HPM_P1;HPM_P2
2024/05/01 00:00:36;;;;;;;6.20;4.10;;;;;;;20.20;41.42;100913.98;111158;1206;100382;-74
2024/05/01 00:03:02;;;;;;;9.00;4.20;;;;;;;20.17;41.55;100919.49;111120;1206;100269;-74
2024/05/01 00:05:27;;;;;;;8.00;4.10;;;;;;;20.13;41.68;100919.98;111026;1206;138662;-74
2024/05/01 00:07:53;;;;;;;8.40;4.50;;;;;;;20.10;41.72;100919.69;111220;1206;100354;-74
2024/05/01 00:10:18;;;;;;;6.60;4.10;;;;;;;20.07;41.72;100917.02;111063;1206;138464;-74
2024/05/01 00:12:43;;;;;;;5.30;3.70;;;;;;;20.01;41.95;100914.02;111188;1208;100405;-74
2024/05/01 00:15:08;;;;;;;5.60;3.50;;;;;;;19.97;41.92;100912.53;111174;1206;100312;-74
2024/05/01 00:17:35;;;;;;;6.20;4.10;;;;;;;19.94;42.03;100911.14;111017;1206;138701;-73
2024/05/01 00:20:00;;;;;;;6.00;4.20;;;;;;;19.92;42.10;100910.22;111232;1211;100483;-74
2024/05/01 00:22:25;;;;;;;9.80;4.00;;;;;;;19.87;42.18;100911.17;111034;1206;138452;-73
2024/05/01 00:24:50;;;;;;;9.40;4.50;;;;;;;19.82;42.24;100912.29;111145;1211;100273;-74
2024/05/01 00:27:16;;;;;;;7.10;4.20;;;;;;;19.77;42.32;100916.11;111234;1205;100963;-74
2024/05/01 00:29:41;;;;;;;7.50;4.40;;;;;;;19.70;42.41;100916.78;111036;1206;138811;-74
2024/05/01 00:32:06;;;;;;;9.20;3.80;;;;;;;19.67;42.41;100917.92;111231;1206;100323;-74
2024/05/01 00:34:32;;;;;;;7.00;4.30;;;;;;;19.66;42.49;100914.41;111033;1206;138484;-74
2024/05/01 00:36:58;;;;;;;6.70;4.40;;;;;;;19.64;42.59;100915.98;111180;1206;100368;-74
2024/05/01 00:39:23;;;;;;;8.00;3.90;;;;;;;19.63;42.81;100913.19;111245;1206;100269;-74
2024/05/01 00:41:48;;;;;;;8.60;3.70;;;;;;;19.60;42.84;100910.34;111008;1210;138415;-74
2024/05/01 00:44:14;;;;;;;14.40;4.10;;;;;;;19.54;42.77;100902.06;111243;1206;98950;-74
2024/05/01 00:46:40;;;;;;;14.80;4.90;;;;;;;19.51;42.98;100898.33;111074;1212;139371;-74
2024/05/01 00:49:06;;;;;;;10.20;4.30;;;;;;;19.46;42.98;100900.29;111190;1206;100362;-74
2024/05/01 00:51:32;;;;;;;11.70;4.10;;;;;;;19.43;43.04;100894.58;111280;1205;100405;-74
2024/05/01 00:53:59;;;;;;;9.30;4.10;;;;;;;19.39;43.22;100895.44;111079;1206;139430;-73
2024/05/01 00:56:25;;;;;;;5.10;4.10;;;;;;;19.36;43.28;100893.15;111308;1206;99115;-74
2024/05/01 00:58:52;;;;;;;10.90;4.70;;;;;;;19.32;43.42;100891.03;111021;1205;138104;-74
2024/05/01 01:01:18;;;;;;;11.80;4.60;;;;;;;19.29;43.44;100886.22;111248;1206;99147;-74
2024/05/01 01:03:44;;;;;;;12.90;4.70;;;;;;;19.26;43.49;100887.41;111119;1206;105158;-74
2024/05/01 01:06:10;;;;;;;8.60;4.30;;;;;;;19.21;43.48;100889.36;111064;1210;138652;-74
2024/05/01 01:08:38;;;;;;;13.30;4.40;;;;;;;19.17;43.52;100885.86;111228;1210;100411;-74
2024/05/01 01:11:10;;;;;;;7.50;3.70;;;;;;;19.13;43.64;100883.10;111043;1206;138465;-74
2024/05/01 01:13:36;;;;;;;9.10;4.30;;;;;;;19.09;43.77;100877.96;111142;1211;100472;-74
2024/05/01 01:16:02;;;;;;;7.90;4.20;;;;;;;19.07;43.84;100876.64;111031;1206;138642;-74
2024/05/01 01:18:28;;;;;;;9.30;4.60;;;;;;;19.06;43.80;100873.87;111238;1206;100376;-74
2024/05/01 01:20:53;;;;;;;8.30;4.70;;;;;;;19.04;43.84;100879.25;111094;1209;100458;-74
2024/05/01 01:23:18;;;;;;;9.30;4.60;;;;;;;18.99;43.98;100883.95;111074;1209;138926;-74
2024/05/01 01:25:44;;;;;;;5.90;4.10;;;;;;;18.95;43.88;100886.27;111213;1205;99109;-74
2024/05/01 01:28:09;;;;;;;9.20;4.30;;;;;;;18.90;44.13;100884.79;111042;1209;138422;-74
2024/05/01 01:30:34;;;;;;;12.90;4.30;;;;;;;18.87;44.15;100881.64;111223;1209;100280;-74
2024/05/01 01:32:59;;;;;;;7.30;4.50;;;;;;;18.84;44.20;100877.47;111095;1206;100632;-74
2024/05/01 01:35:24;;;;;;;7.20;4.00;;;;;;;18.81;44.21;100878.09;111066;1211;138546;-74
2024/05/01 01:37:50;;;;;;;10.40;4.40;;;;;;;18.75;44.28;100876.70;111086;1211;99549;-74
2024/05/01 01:40:15;;;;;;;7.50;4.10;;;;;;;18.70;44.55;100875.47;110977;1211;139864;-74
2024/05/01 01:42:40;;;;;;;8.00;4.00;;;;;;;18.65;44.57;100880.33;111142;1206;99146;-74
2024/05/01 01:45:05;;;;;;;6.30;4.20;;;;;;;18.60;44.61;100880.88;111101;1211;100411;-74
2024/05/01 01:47:31;;;;;;;9.90;4.30;;;;;;;18.56;44.76;100875.36;111095;1206;138966;-74
2024/05/01 01:49:56;;;;;;;12.80;4.30;;;;;;;18.52;44.76;100877.65;111109;1206;101238;-74
2024/05/01 01:52:21;;;;;;;8.20;4.10;;;;;;;18.49;44.87;100873.14;111123;1211;139630;-74
2024/05/01 01:54:46;;;;;;;11.70;5.80;;;;;;;18.46;44.99;100875.66;111064;1206;100613;-75
2024/05/01 01:57:11;;;;;;;12.10;4.80;;;;;;;18.44;44.92;100872.21;111148;1206;100392;-74
2024/05/01 01:59:37;;;;;;;7.40;4.30;;;;;;;18.41;45.13;100868.30;111100;1205;139389;-74
2024/05/01 02:02:02;;;;;;;8.10;4.50;;;;;;;18.39;45.07;100866.42;111172;1211;100404;-74
2024/05/01 02:04:27;;;;;;;11.90;4.40;;;;;;;18.36;45.17;100861.44;111307;1205;139174;-74
2024/05/01 02:06:52;;;;;;;7.70;4.40;;;;;;;18.30;45.34;100863.12;111102;1211;100316;-73
2024/05/01 02:09:17;;;;;;;11.90;4.60;;;;;;;18.26;45.24;100861.23;111136;1206;100303;-74
2024/05/01 02:11:43;;;;;;;14.80;5.50;;;;;;;18.23;45.48;100861.66;111042;1206;138480;-74
2024/05/01 02:14:08;;;;;;;6.30;4.90;;;;;;;18.20;45.56;100861.04;111149;1211;100292;-74
2024/05/01 02:16:33;;;;;;;9.30;4.80;;;;;;;18.16;45.50;100858.73;111078;1206;138474;-74
2024/05/01 02:18:58;;;;;;;10.10;5.10;;;;;;;18.13;45.45;100856.24;111142;1211;100393;-74
2024/05/01 02:21:25;;;;;;;8.40;5.10;;;;;;;18.12;45.66;100860.98;111246;1206;100282;-74
2024/05/01 02:23:50;;;;;;;10.10;5.20;;;;;;;18.09;45.80;100863.62;111029;1211;139490;-74
2024/05/01 02:26:18;;;;;;;6.50;4.10;;;;;;;18.04;45.80;100862.32;111092;1206;100027;-74
2024/05/01 02:28:44;;;;;;;9.10;5.00;;;;;;;17.98;45.94;100863.98;111065;1211;138741;-74
2024/05/01 02:31:09;;;;;;;10.70;4.60;;;;;;;17.94;46.11;100862.12;111242;1206;101224;-74
2024/05/01 02:33:34;;;;;;;12.00;4.50;;;;;;;17.91;46.29;100856.20;111088;1212;100390;-74
2024/05/01 02:36:00;;;;;;;10.20;4.80;;;;;;;17.90;46.26;100858.30;111076;1210;138969;-74
2024/05/01 02:38:25;;;;;;;8.20;4.80;;;;;;;17.85;46.29;100855.52;111211;1218;100395;-74
2024/05/01 02:40:50;;;;;;;7.30;4.90;;;;;;;17.81;46.40;100852.16;111035;1211;138307;-74
2024/05/01 02:43:15;;;;;;;9.40;5.40;;;;;;;17.78;46.49;100851.66;111226;1206;100248;-74
2024/05/01 02:45:40;;;;;;;8.50;4.50;;;;;;;17.75;46.35;100853.84;111129;1211;100372;-74
2024/05/01 02:48:06;;;;;;;6.90;4.40;;;;;;;17.73;46.52;100860.88;111118;1205;138655;-74
2024/05/01 02:50:33;;;;;;;7.40;4.80;;;;;;;17.68;46.57;100859.23;111175;1206;100449;-74
2024/05/01 02:52:59;;;;;;;8.90;5.30;;;;;;;17.65;46.59;100859.64;111038;1206;139458;-74
2024/05/01 02:55:24;;;;;;;10.70;5.10;;;;;;;17.60;46.63;100856.52;111072;1211;100402;-74
2024/05/01 02:57:49;;;;;;;7.20;4.70;;;;;;;17.57;46.71;100854.44;111151;1206;100353;-74
2024/05/01 03:00:14;;;;;;;6.70;4.50;;;;;;;17.52;46.53;100852.38;111026;1206;138736;-74
2024/05/01 03:02:40;;;;;;;11.90;4.80;;;;;;;17.48;46.88;100851.40;111161;1206;100337;-74
2024/05/01 03:05:06;;;;;;;7.20;4.40;;;;;;;17.45;46.97;100850.53;110947;1211;139372;-74
2024/05/01 03:07:31;;;;;;;8.10;4.20;;;;;;;17.42;46.95;100853.45;111219;1210;100408;-74
2024/05/01 03:09:56;;;;;;;9.60;5.10;;;;;;;17.40;47.06;100845.82;111071;1211;139797;-74
2024/05/01 03:12:21;;;;;;;9.10;4.90;;;;;;;17.36;46.98;100851.16;111096;1211;100392;-74
2024/05/01 03:14:47;;;;;;;9.70;4.70;;;;;;;17.34;47.18;100856.02;111159;1206;100400;-74
2024/05/01 03:17:12;;;;;;;7.10;4.20;;;;;;;17.32;47.14;100854.31;111034;1210;139950;-74
2024/05/01 03:19:39;;;;;;;10.50;4.30;;;;;;;17.29;47.24;100853.61;111122;1210;100819;-74
2024/05/01 03:22:05;;;;;;;7.00;4.60;;;;;;;17.27;47.38;100856.14;110995;1212;139036;-74
2024/05/01 03:24:30;;;;;;;6.90;4.10;;;;;;;17.24;47.46;100848.19;111180;1211;100387;-74
2024/05/01 03:26:55;;;;;;;11.10;5.10;;;;;;;17.21;47.50;100852.53;111174;1211;99148;-74
2024/05/01 03:29:21;;;;;;;7.70;4.80;;;;;;;17.18;47.65;100855.39;111037;1206;139051;-74
2024/05/01 03:31:46;;;;;;;7.50;4.50;;;;;;;17.16;47.65;100851.05;111144;1206;100301;-74
2024/05/01 03:34:11;;;;;;;10.00;4.70;;;;;;;17.12;47.64;100853.50;111048;1211;139125;-74
2024/05/01 03:36:36;;;;;;;12.50;5.30;;;;;;;17.09;47.77;100856.07;111209;1210;100857;-74
2024/05/01 03:39:03;;;;;;;14.00;4.80;;;;;;;17.07;47.73;100856.75;111162;1205;100666;-73
2024/05/01 03:41:28;;;;;;;12.10;4.50;;;;;;;17.03;47.82;100856.06;111018;1206;139390;-73
2024/05/01 03:43:53;;;;;;;9.00;5.50;;;;;;;17.01;48.00;100856.96;111256;1205;101807;-73
2024/05/01 03:46:18;;;;;;;7.60;4.50;;;;;;;16.98;47.83;100856.63;111051;1211;138965;-74
2024/05/01 03:48:44;;;;;;;8.30;5.30;;;;;;;16.95;48.04;100860.75;111171;1205;99134;-74
2024/05/01 03:51:09;;;;;;;12.40;5.00;;;;;;;16.93;48.06;100854.46;111228;1210;100366;-74
2024/05/01 03:53:37;;;;;;;10.10;5.00;;;;;;;16.90;48.22;100863.08;111091;1210;138665;-74
2024/05/01 03:56:03;;;;;;;9.30;4.80;;;;;;;16.87;48.22;100861.30;111076;1208;99241;-74
2024/05/01 03:58:29;;;;;;;8.80;5.00;;;;;;;16.86;48.25;100862.60;110953;1211;139384;-74
2024/05/01 04:00:54;;;;;;;5.70;4.30;;;;;;;16.84;48.35;100866.17;111150;1207;100208;-74
2024/05/01 04:03:19;;;;;;;10.80;5.10;;;;;;;16.82;48.38;100873.39;111130;1211;100454;-74
2024/05/01 04:05:44;;;;;;;11.60;5.20;;;;;;;16.78;48.53;100870.01;111037;1207;139224;-74
2024/05/01 04:08:09;;;;;;;8.50;5.00;;;;;;;16.76;48.50;100871.06;111085;1212;100426;-74
2024/05/01 04:10:35;;;;;;;9.20;5.00;;;;;;;16.75;48.72;100874.21;111023;1208;138935;-74
2024/05/01 04:13:06;;;;;;;7.90;5.50;;;;;;;16.72;48.61;100874.95;111094;1211;107384;-74
2024/05/01 04:15:33;;;;;;;9.20;5.00;;;;;;;16.69;48.84;100873.53;111171;1212;100795;-74
2024/05/01 04:17:58;;;;;;;8.10;4.60;;;;;;;16.68;48.76;100876.49;111023;1208;138631;-74
2024/05/01 04:20:23;;;;;;;6.40;4.50;;;;;;;16.67;48.84;100879.06;111211;1207;100316;-74
2024/05/01 04:22:48;;;;;;;6.60;4.40;;;;;;;16.66;48.85;100876.61;110893;1207;138745;-74
2024/05/01 04:25:16;;;;;;;17.20;5.10;;;;;;;16.65;48.91;100880.64;111117;1207;100386;-74
2024/05/01 04:27:41;;;;;;;14.60;5.70;;;;;;;16.63;49.07;100879.49;111121;1207;99156;-74
2024/05/01 04:30:08;;;;;;;15.10;5.00;;;;;;;16.61;49.07;100882.16;111063;1212;139072;-74
2024/05/01 04:32:33;;;;;;;10.50;5.30;;;;;;;16.60;49.16;100883.66;111044;1207;107328;-74
2024/05/01 04:34:59;;;;;;;17.10;4.80;;;;;;;16.60;49.35;100884.19;110889;1211;139264;-74
2024/05/01 04:37:24;;;;;;;7.70;4.80;;;;;;;16.60;49.22;100886.00;111143;1208;100266;-74
2024/05/01 04:39:49;;;;;;;10.00;5.20;;;;;;;16.59;49.26;100886.45;111043;1206;101600;-74
2024/05/01 04:42:14;;;;;;;11.10;5.80;;;;;;;16.56;49.48;100884.92;110993;1211;138713;-74
2024/05/01 04:44:39;;;;;;;8.10;5.50;;;;;;;16.58;49.44;100885.60;111036;1207;100181;-74
2024/05/01 04:47:05;;;;;;;9.40;5.20;;;;;;;16.58;49.52;100885.20;111062;1211;138720;-74
2024/05/01 04:49:30;;;;;;;9.10;4.90;;;;;;;16.57;49.47;100883.09;111076;1207;100397;-74
2024/05/01 04:51:55;;;;;;;7.00;4.50;;;;;;;16.59;49.49;100880.82;111002;1212;100971;-74
2024/05/01 04:54:21;;;;;;;8.30;5.00;;;;;;;16.60;49.73;100880.59;111051;1206;139434;-74
2024/05/01 04:56:46;;;;;;;11.00;5.10;;;;;;;16.59;49.70;100881.71;111100;1212;100403;-74
2024/05/01 04:59:12;;;;;;;8.50;5.00;;;;;;;16.58;49.84;100875.81;111086;1211;139390;-74
2024/05/01 05:01:38;;;;;;;8.60;5.20;;;;;;;16.59;49.94;100879.92;111124;1206;100189;-74
2024/05/01 05:04:04;;;;;;;8.30;4.30;;;;;;;16.60;49.95;100873.92;111026;1211;139432;-74
2024/05/01 05:06:29;;;;;;;9.60;5.30;;;;;;;16.60;50.06;100875.33;111096;1206;100254;-74
2024/05/01 05:08:54;;;;;;;8.40;4.90;;;;;;;16.61;50.06;100879.41;111104;1211;100424;-74
2024/05/01 05:11:20;;;;;;;9.70;5.30;;;;;;;16.61;50.08;100874.73;111027;1210;139342;-74
2024/05/01 05:13:45;;;;;;;15.60;5.20;;;;;;;16.63;50.19;100872.64;111193;1206;100344;-74
2024/05/01 05:16:10;;;;;;;10.10;5.90;;;;;;;16.63;50.18;100875.48;111044;1205;139723;-74
2024/05/01 05:18:35;;;;;;;57.00;8.10;;;;;;;16.65;50.29;100875.42;111200;1211;99373;-74
2024/05/01 05:21:00;;;;;;;61.50;7.50;;;;;;;16.66;50.30;100874.98;111183;1211;100441;-74
2024/05/01 05:23:25;;;;;;;81.00;9.90;;;;;;;16.68;50.39;100873.91;111130;1206;138435;-74
2024/05/01 05:25:52;;;;;;;54.50;7.30;;;;;;;16.70;50.48;100873.64;111161;1211;100366;-74
2024/05/01 05:28:17;;;;;;;47.30;6.40;;;;;;;16.72;50.43;100872.75;111122;1206;138939;-74
2024/05/01 05:30:42;;;;;;;73.90;9.40;;;;;;;16.74;50.46;100869.40;111192;1211;100297;-74
2024/05/01 05:33:07;;;;;;;29.60;6.80;;;;;;;16.75;50.53;100870.02;111180;1206;100931;-74
2024/05/01 05:35:32;;;;;;;23.10;6.50;;;;;;;16.77;50.59;100870.27;111100;1206;139207;-74
2024/05/01 05:37:58;;;;;;;21.90;5.70;;;;;;;16.78;50.63;100871.46;111141;1210;100408;-74
2024/05/01 05:40:23;;;;;;;19.60;6.20;;;;;;;16.80;50.51;100877.27;111042;1205;139889;-74
2024/05/01 05:42:48;;;;;;;28.90;6.50;;;;;;;16.82;50.60;100871.78;111126;1211;100373;-74
2024/05/01 05:45:13;;;;;;;20.80;6.50;;;;;;;16.84;50.71;100870.20;111199;1205;100312;-74
2024/05/01 05:47:38;;;;;;;34.20;6.60;;;;;;;16.84;50.71;100868.02;111084;1206;139635;-74
2024/05/01 05:50:04;;;;;;;36.40;6.70;;;;;;;16.85;50.81;100865.77;111139;1206;102560;-74
2024/05/01 05:52:29;;;;;;;41.70;8.10;;;;;;;16.86;50.70;100867.33;111120;1205;139260;-73
2024/05/01 05:54:54;;;;;;;93.50;9.30;;;;;;;16.88;50.83;100867.35;111160;1211;101768;-73
2024/05/01 05:57:19;;;;;;;58.90;8.10;;;;;;;16.90;50.81;100869.79;111197;1206;100273;-73
2024/05/01 05:59:45;;;;;;;12.80;5.70;;;;;;;16.91;50.89;100865.59;111114;1211;139125;-73
2024/05/01 06:02:10;;;;;;;33.80;6.70;;;;;;;16.92;50.94;100859.18;111194;1206;100286;-73
2024/05/01 06:04:35;;;;;;;25.80;6.60;;;;;;;16.94;51.11;100858.32;111020;1211;140075;-73
2024/05/01 06:07:00;;;;;;;54.40;8.40;;;;;;;16.96;51.05;100858.55;111238;1205;100288;-73
2024/05/01 06:09:25;;;;;;;59.70;7.50;;;;;;;16.99;51.03;100863.61;111214;1206;100841;-74
2024/05/01 06:11:51;;;;;;;42.30;7.70;;;;;;;17.01;51.19;100860.20;111030;1206;139597;-74
2024/05/01 06:14:16;;;;;;;69.60;9.40;;;;;;;17.02;51.15;100867.33;111274;1206;100402;-74
2024/05/01 06:16:41;;;;;;;43.60;9.90;;;;;;;17.05;51.12;100866.08;110985;1211;139649;-74
2024/05/01 06:19:06;;;;;;;84.40;14.00;;;;;;;17.07;51.22;100864.83;111210;1206;100309;-74
2024/05/01 06:21:31;;;;;;;78.10;12.10;;;;;;;17.10;51.24;100866.80;111206;1205;100412;-74
2024/05/01 06:23:56;;;;;;;58.80;9.80;;;;;;;17.12;51.29;100864.33;110930;1206;139218;-74
2024/05/01 06:26:22;;;;;;;56.40;10.00;;;;;;;17.14;51.47;100862.91;111224;1206;101040;-74
2024/05/01 06:28:47;;;;;;;41.40;8.60;;;;;;;17.16;51.28;100856.98;111046;1210;138769;-74
2024/05/01 06:31:12;;;;;;;34.30;7.00;;;;;;;17.19;51.47;100856.45;111231;1206;101339;-74
2024/05/01 06:33:37;;;;;;;32.00;6.50;;;;;;;17.22;51.53;100854.48;111119;1211;100390;-74
2024/05/01 06:36:05;;;;;;;54.30;7.00;;;;;;;17.23;51.58;100856.36;111098;1205;138575;-74
2024/05/01 06:38:30;;;;;;;27.40;6.40;;;;;;;17.27;51.61;100856.31;111149;1206;100386;-74
2024/05/01 06:40:56;;;;;;;12.70;4.50;;;;;;;17.30;51.48;100853.89;111088;1206;139964;-74
2024/05/01 06:43:21;;;;;;;16.80;5.30;;;;;;;17.33;51.36;100847.00;111190;1205;99587;-74
2024/05/01 06:45:47;;;;;;;10.40;5.00;;;;;;;17.34;51.52;100847.67;111233;1211;100315;-74
2024/05/01 06:48:12;;;;;;;38.90;5.70;;;;;;;17.38;51.52;100845.23;111105;1205;138942;-74
2024/05/01 06:50:37;;;;;;;19.50;5.30;;;;;;;17.42;51.69;100843.33;111169;1207;102491;-73
2024/05/01 06:53:03;;;;;;;19.30;5.40;;;;;;;17.44;51.61;100843.19;111166;1211;139113;-74
2024/05/01 06:55:30;;;;;;;16.70;4.80;;;;;;;17.48;51.58;100845.27;111164;1206;100351;-74
2024/05/01 06:57:55;;;;;;;22.70;5.00;;;;;;;17.51;51.67;100844.70;111178;1206;100461;-74
2024/05/01 07:00:21;;;;;;;11.30;4.00;;;;;;;17.54;51.58;100845.74;111118;1211;138989;-73
2024/05/01 07:02:46;;;;;;;20.80;5.00;;;;;;;17.59;51.56;100844.16;111134;1209;100403;-73
2024/05/01 07:05:11;;;;;;;45.90;4.90;;;;;;;17.63;51.44;100845.64;111107;1205;139382;-74
2024/05/01 07:07:36;;;;;;;14.70;4.50;;;;;;;17.67;51.56;100837.45;111190;1205;100534;-73
2024/05/01 07:10:01;;;;;;;10.90;3.70;;;;;;;17.71;51.37;100836.81;111053;1206;139734;-74
2024/05/01 07:12:27;;;;;;;13.00;4.30;;;;;;;17.75;51.40;100837.25;111273;1220;100375;-74
2024/05/01 07:14:52;;;;;;;41.60;5.80;;;;;;;17.79;51.49;100836.80;111145;1206;100404;-74
2024/05/01 07:17:17;;;;;;;40.20;4.90;;;;;;;17.85;51.46;100833.13;111120;1205;139689;-73
2024/05/01 07:19:42;;;;;;;38.30;5.30;;;;;;;17.92;51.23;100832.09;111160;1211;100501;-74
2024/05/01 07:22:07;;;;;;;16.90;4.20;;;;;;;17.97;51.30;100829.42;111150;1205;139706;-74
2024/05/01 07:24:32;;;;;;;19.20;5.70;;;;;;;18.02;51.25;100830.68;111114;1211;100299;-74
2024/05/01 07:26:58;;;;;;;30.30;5.40;;;;;;;18.07;51.23;100829.77;111163;1205;100295;-74
2024/05/01 07:29:23;;;;;;;37.10;5.30;;;;;;;18.11;51.08;100827.84;111159;1210;139986;-73
2024/05/01 07:31:49;;;;;;;26.50;5.00;;;;;;;18.15;51.12;100830.28;111160;1205;100308;-73
2024/05/01 07:34:14;;;;;;;16.90;3.90;;;;;;;18.18;51.05;100827.30;111007;1205;139250;-74
2024/05/01 07:36:40;;;;;;;16.40;4.30;;;;;;;18.24;50.98;100833.75;111190;1206;100306;-73
2024/05/01 07:39:05;;;;;;;15.30;3.70;;;;;;;18.28;51.13;100831.29;111139;1207;99063;-73
2024/05/01 07:41:30;;;;;;;15.10;3.50;;;;;;;18.32;51.16;100832.58;111190;1211;138793;-74
2024/05/01 07:43:55;;;;;;;15.10;3.40;;;;;;;18.37;50.92;100831.34;111173;1205;100298;-73
2024/05/01 07:46:20;;;;;;;4.10;3.00;;;;;;;18.41;51.06;100827.92;111099;1210;140227;-73
2024/05/01 07:48:46;;;;;;;16.10;3.50;;;;;;;18.46;50.91;100824.30;111154;1206;100301;-73
2024/05/01 07:51:11;;;;;;;4.50;2.50;;;;;;;18.51;50.80;100820.15;111222;1211;100401;-74
2024/05/01 07:53:36;;;;;;;3.80;2.60;;;;;;;18.56;50.74;100825.78;111016;1206;138720;-74
2024/05/01 07:56:01;;;;;;;10.60;2.80;;;;;;;18.63;50.54;100823.30;111170;1205;100373;-73
2024/05/01 07:58:26;;;;;;;6.40;3.20;;;;;;;18.68;50.45;100821.83;111167;1211;141050;-74
2024/05/01 08:00:51;;;;;;;5.00;2.90;;;;;;;18.73;50.45;100820.19;111120;1205;100302;-74
2024/05/01 08:03:17;;;;;;;7.00;2.60;;;;;;;18.76;50.33;100819.97;111237;1211;100523;-73
2024/05/01 08:05:42;;;;;;;4.30;2.80;;;;;;;18.83;50.29;100821.81;110950;1205;139280;-73
2024/05/01 08:08:08;;;;;;;5.90;3.00;;;;;;;18.90;50.05;100814.23;111200;1211;100264;-73
2024/05/01 08:10:34;;;;;;;6.30;2.80;;;;;;;18.94;49.98;100809.89;111016;1210;138491;-74
2024/05/01 08:12:59;;;;;;;8.20;2.30;;;;;;;19.00;49.91;100812.36;111113;1205;99161;-74
2024/05/01 08:15:24;;;;;;;3.30;2.30;;;;;;;19.04;49.76;100815.67;111192;1211;100376;-74
2024/05/01 08:17:49;;;;;;;8.60;2.90;;;;;;;19.06;49.75;100818.77;110943;1208;138302;-73
2024/05/01 08:20:14;;;;;;;4.60;2.20;;;;;;;19.10;49.70;100818.27;111225;1211;100407;-74
2024/05/01 08:22:40;;;;;;;3.80;2.30;;;;;;;19.14;49.54;100817.79;110992;1206;139055;-74
2024/05/01 08:25:05;;;;;;;7.00;3.30;;;;;;;19.19;49.47;100816.88;111136;1205;101764;-74
2024/05/01 08:27:31;;;;;;;5.70;2.70;;;;;;;19.25;49.42;100809.52;111210;1205;100315;-73
2024/05/01 08:29:59;;;;;;;7.60;2.80;;;;;;;19.33;49.33;100808.34;110916;1206;138452;-73
2024/05/01 08:32:24;;;;;;;6.60;2.50;;;;;;;19.38;49.25;100803.23;111149;1211;100360;-73
2024/05/01 08:34:49;;;;;;;8.90;2.40;;;;;;;19.43;49.05;100808.16;110986;1205;138328;-74
2024/05/01 08:37:15;;;;;;;2.90;2.30;;;;;;;19.46;48.87;100809.16;111112;1211;100480;-73
2024/05/01 08:39:41;;;;;;;5.10;2.20;;;;;;;19.51;48.73;100807.38;111100;1206;100283;-74
2024/05/01 08:42:07;;;;;;;5.90;2.50;;;;;;;19.53;48.60;100797.95;111085;1205;138887;-73
2024/05/01 08:44:34;;;;;;;7.20;2.00;;;;;;;19.56;48.47;100798.64;111078;1211;100362;-73
2024/05/01 08:47:05;;;;;;;12.30;2.90;;;;;;;19.60;48.35;100798.48;111078;1206;138837;-74
2024/05/01 08:49:30;;;;;;;12.00;2.80;;;;;;;19.64;48.15;100796.14;111177;1211;105166;-74
2024/05/01 08:52:02;;;;;;;11.40;1.90;;;;;;;19.72;47.97;100790.46;111167;1209;100340;-74
2024/05/01 08:54:28;;;;;;;6.00;1.90;;;;;;;19.79;47.84;100792.65;111133;1211;100280;-73
2024/05/01 08:56:55;;;;;;;20.20;2.60;;;;;;;19.83;47.74;100789.59;111213;1205;100289;-73
2024/05/01 08:59:21;;;;;;;12.30;3.40;;;;;;;19.88;47.61;100789.38;111095;1208;139305;-74
2024/05/01 09:01:47;;;;;;;19.10;5.40;;;;;;;19.94;47.45;100788.20;111211;1205;100311;-74
2024/05/01 09:04:15;;;;;;;14.00;4.80;;;;;;;20.01;47.28;100784.31;111005;1205;138714;-74
2024/05/01 09:06:49;;;;;;;6.10;3.10;;;;;;;20.08;47.22;100782.48;111057;1212;100389;-74
2024/05/01 09:09:14;;;;;;;18.10;5.10;;;;;;;20.12;47.14;100778.74;111159;1211;100441;-74
2024/05/01 09:11:46;;;;;;;11.60;4.30;;;;;;;20.16;46.99;100775.30;110968;1206;139220;-74
2024/05/01 09:14:11;;;;;;;11.50;3.50;;;;;;;20.23;46.96;100776.02;111157;1206;99160;-74
2024/05/01 09:16:42;;;;;;;11.40;3.70;;;;;;;20.28;46.94;100768.34;111000;1211;139026;-74
2024/05/01 09:19:07;;;;;;;10.00;2.40;;;;;;;20.31;46.73;100767.40;111123;1205;100304;-74
2024/05/01 09:21:39;;;;;;;8.40;3.20;;;;;;;20.33;46.66;100762.98;111057;1211;100533;-74
2024/05/01 09:24:06;;;;;;;8.20;2.70;;;;;;;20.37;46.63;100755.25;111078;1210;139632;-74
2024/05/01 09:26:32;;;;;;;8.80;2.30;;;;;;;20.40;46.50;100749.77;111164;1205;100276;-73
2024/05/01 09:28:57;;;;;;;4.20;2.40;;;;;;;20.44;46.44;100751.81;111080;1212;139477;-74
2024/05/01 09:31:22;;;;;;;7.60;2.40;;;;;;;20.52;46.30;100747.71;111245;1206;100354;-74
2024/05/01 09:33:48;;;;;;;3.00;1.90;;;;;;;20.57;46.20;100739.43;111142;1205;100399;-74
2024/05/01 09:36:14;;;;;;;16.30;2.40;;;;;;;20.60;46.12;100741.00;111177;1206;138256;-74
2024/05/01 09:38:44;;;;;;;8.80;2.60;;;;;;;20.64;46.03;100738.48;111126;1211;99995;-74
2024/05/01 09:41:13;;;;;;;6.40;2.10;;;;;;;20.68;45.94;100734.70;111113;1206;138727;-74
2024/05/01 09:43:47;;;;;;;12.20;2.30;;;;;;;20.72;45.94;100742.15;111252;1211;105876;-74
2024/05/01 09:46:15;;;;;;;10.70;2.70;;;;;;;20.77;45.78;100742.52;111062;1210;139414;-74
2024/05/01 09:48:41;;;;;;;6.50;2.30;;;;;;;20.81;45.66;100733.44;111147;1205;99586;-74
2024/05/01 09:51:08;;;;;;;7.40;2.80;;;;;;;20.86;45.63;100731.52;111152;1210;100380;-74
2024/05/01 09:53:36;;;;;;;6.50;2.70;;;;;;;20.94;45.50;100729.70;111121;1205;139117;-74
2024/05/01 09:56:02;;;;;;;6.50;2.40;;;;;;;21.00;45.45;100723.92;111290;1211;100399;-74
2024/05/01 09:58:32;;;;;;;24.00;3.40;;;;;;;21.07;45.43;100724.09;111059;1206;139088;-74
2024/05/01 10:01:00;;;;;;;6.70;2.40;;;;;;;21.16;45.36;100725.88;111249;1205;102041;-74
2024/05/01 10:03:27;;;;;;;4.40;2.30;;;;;;;21.23;45.29;100721.80;111160;1211;100347;-74
2024/05/01 10:05:53;;;;;;;5.40;1.80;;;;;;;21.27;45.15;100722.23;111057;1206;138538;-74
2024/05/01 10:08:20;;;;;;;7.20;2.40;;;;;;;21.33;45.08;100712.42;111116;1206;100471;-73
2024/05/01 10:10:45;;;;;;;5.30;2.10;;;;;;;21.38;44.92;100705.77;111031;1210;138832;-74
2024/05/01 10:13:12;;;;;;;5.90;2.30;;;;;;;21.42;44.74;100703.59;111147;1205;100286;-73
2024/05/01 10:15:43;;;;;;;9.50;2.10;;;;;;;21.45;44.75;100700.94;111130;1211;100383;-73
2024/05/01 10:18:10;;;;;;;3.10;1.70;;;;;;;21.51;44.72;100694.63;111112;1206;139027;-73
2024/05/01 10:20:52;;;;;;;12.10;2.20;;;;;;;21.57;44.56;100694.06;111092;1205;101003;-73
2024/05/01 10:23:22;;;;;;;3.80;1.80;;;;;;;21.69;44.37;100691.05;111053;1206;138715;-73
2024/05/01 10:25:48;;;;;;;3.50;1.70;;;;;;;21.77;44.15;100687.95;111157;1206;98972;-78
2024/05/01 10:28:15;;;;;;;8.90;2.10;;;;;;;21.82;44.10;100682.80;110984;1206;138502;-77
2024/05/01 10:30:40;;;;;;;8.30;1.90;;;;;;;21.84;43.80;100677.29;111127;1211;100273;-78
2024/05/01 10:33:05;;;;;;;8.70;1.80;;;;;;;21.89;43.67;100676.98;111226;1208;100289;-78
2024/05/01 10:35:31;;;;;;;7.80;1.90;;;;;;;21.93;43.55;100671.98;111049;1205;139708;-77
2024/05/01 10:37:58;;;;;;;14.60;2.40;;;;;;;21.96;43.43;100666.93;111299;1209;100399;-77
2024/05/01 10:40:24;;;;;;;7.90;2.20;;;;;;;22.00;43.13;100657.47;111155;1205;138578;-77
2024/05/01 10:42:49;;;;;;;6.00;2.00;;;;;;;22.04;43.05;100655.89;111175;1211;100287;-77
2024/05/01 10:45:15;;;;;;;3.80;2.00;;;;;;;22.09;43.04;100652.52;111159;1205;100404;-78
2024/05/01 10:47:40;;;;;;;5.60;2.00;;;;;;;22.18;43.08;100650.59;111130;1211;138429;-78
2024/05/01 10:50:07;;;;;;;3.70;2.60;;;;;;;22.23;42.93;100643.17;111224;1205;100359;-77
2024/05/01 10:52:34;;;;;;;9.70;2.10;;;;;;;22.26;42.68;100636.17;111085;1208;138494;-77
2024/05/01 10:54:59;;;;;;;5.60;2.40;;;;;;;22.33;42.98;100634.05;111192;1211;100474;-77
2024/05/01 10:57:25;;;;;;;6.20;1.90;;;;;;;22.38;42.70;100633.05;111259;1205;99410;-77
2024/05/01 10:59:59;;;;;;;5.30;1.90;;;;;;;22.45;42.67;100629.89;110994;1211;138390;-77